Time;durP1;ratioP1;P1;durP2;ratioP2;P2;SDS_P1;SDS_P2;PMS_P1;PMS_P2;Temp;Humidity;BMP_temperature;BMP_pressure;BME280_temperature;BME280_humidity;BME280_pressure;Samples;Min_cycle;Max_cycle;Signal;HPM_P1;HPM_P2
2023/05/03 04:22:33;;;;;;;7.00;3.47;;;;;;;6.14;100.00;101144.81;5089196;28;20389;-70
2023/05/03 04:25:00;;;;;;;7.43;4.07;;;;;;;6.23;100.00;101144.06;5088000;28;20044;-71
2023/05/03 04:27:26;;;;;;;7.10;4.03;;;;;;;6.27;100.00;101143.81;5087784;28;20036;-70
2023/05/03 04:29:53;;;;;;;7.28;4.10;;;;;;;6.33;100.00;101146.81;5089115;28;20090;-70
2023/05/03 04:32:23;;;;;;;9.80;4.32;;;;;;;6.32;100.00;101146.91;5087990;28;20025;-71
2023/05/03 04:34:53;;;;;;;9.35;4.10;;;;;;;6.36;100.00;101143.06;5087936;28;20554;-70
2023/05/03 04:37:22;;;;;;;7.22;4.13;;;;;;;6.43;100.00;101142.44;5087388;28;20040;-70
2023/05/03 04:39:48;;;;;;;10.70;4.40;;;;;;;6.50;100.00;101142.78;5081423;28;20106;-71
2023/05/03 04:42:14;;;;;;;9.15;4.07;;;;;;;6.49;100.00;101143.75;5075902;28;20086;-71
2023/05/03 04:44:43;;;;;;;5.20;3.35;;;;;;;6.40;100.00;101129.47;5072328;28;20044;-70
2023/05/03 04:47:09;;;;;;;9.88;3.83;;;;;;;6.48;100.00;101142.06;5067167;28;20086;-70
2023/05/03 04:49:35;;;;;;;10.13;4.95;;;;;;;6.56;100.00;101147.56;5067445;28;20048;-72
2023/05/03 04:52:01;;;;;;;8.73;4.47;;;;;;;6.59;100.00;101152.63;5067304;28;20032;-71
2023/05/03 04:54:27;;;;;;;8.27;3.90;;;;;;;6.56;100.00;101149.38;5068628;28;20032;-71
2023/05/03 04:56:53;;;;;;;7.15;3.65;;;;;;;6.57;100.00;101146.59;5067010;28;20048;-72
2023/05/03 04:59:19;;;;;;;8.38;4.35;;;;;;;6.55;100.00;101153.00;5085349;28;20519;-72
2023/05/03 05:01:46;;;;;;;6.97;3.47;;;;;;;6.58;100.00;101163.34;5087094;28;20040;-64
2023/05/03 05:04:12;;;;;;;7.75;4.38;;;;;;;6.57;100.00;101161.66;5087510;28;20115;-65
2023/05/03 05:06:42;;;;;;;7.15;4.10;;;;;;;6.63;100.00;101161.16;5087084;28;20404;-63
2023/05/03 05:09:22;;;;;;;9.10;4.63;;;;;;;6.69;100.00;101156.19;5086840;28;20492;-65
2023/05/03 05:11:49;;;;;;;7.45;4.10;;;;;;;6.71;100.00;101159.56;5087234;28;20036;-63
2023/05/03 05:14:15;;;;;;;8.25;4.53;;;;;;;6.76;100.00;101160.00;5087063;28;20048;-63
2023/05/03 05:16:41;;;;;;;6.15;3.92;;;;;;;6.86;100.00;101164.56;5083514;28;20370;-64
2023/05/03 05:19:07;;;;;;;6.50;3.58;;;;;;;6.92;100.00;101172.00;5080340;28;20090;-64
2023/05/03 05:21:33;;;;;;;7.07;4.22;;;;;;;7.01;100.00;101172.06;5086853;28;20041;-63
2023/05/03 05:24:00;;;;;;;9.48;4.05;;;;;;;7.06;100.00;101169.06;5087086;28;20393;-61
2023/05/03 05:26:28;;;;;;;9.38;3.65;;;;;;;7.15;100.00;101170.91;5086944;28;20098;-63
2023/05/03 05:28:55;;;;;;;8.35;4.20;;;;;;;7.19;100.00;101168.88;5086961;28;20489;-64
2023/05/03 05:31:20;;;;;;;8.05;4.13;;;;;;;7.22;100.00;101163.28;5088054;28;20062;-65
2023/05/03 05:33:46;;;;;;;4.90;3.42;;;;;;;7.28;100.00;101166.25;5057343;28;20040;-63
2023/05/03 05:36:13;;;;;;;5.90;3.70;;;;;;;7.41;100.00;101168.72;5073188;28;20032;-64
2023/05/03 05:38:39;;;;;;;8.40;4.33;;;;;;;7.41;100.00;101166.06;5072756;28;20060;-64
2023/05/03 05:41:06;;;;;;;7.03;4.13;;;;;;;7.47;100.00;101162.91;5073130;28;20295;-63
2023/05/03 05:43:31;;;;;;;8.07;4.53;;;;;;;7.60;100.00;101162.69;5073118;28;20772;-65
2023/05/03 05:45:57;;;;;;;6.38;3.90;;;;;;;7.67;100.00;101163.84;5072925;28;20177;-65
2023/05/03 05:48:23;;;;;;;7.00;3.65;;;;;;;7.76;100.00;101163.06;5072638;28;20032;-65
2023/05/03 05:50:49;;;;;;;8.65;3.88;;;;;;;7.80;100.00;101159.16;5056410;28;20040;-63
2023/05/03 05:53:15;;;;;;;7.05;3.92;;;;;;;7.95;100.00;101156.97;5072812;28;20089;-64
2023/05/03 05:55:47;;;;;;;7.00;3.45;;;;;;;7.92;100.00;101162.56;5073186;28;20041;-63
2023/05/03 05:58:13;;;;;;;7.28;3.70;;;;;;;7.88;100.00;101156.66;5072757;28;20522;-62
2023/05/03 06:00:44;;;;;;;7.28;4.28;;;;;;;7.94;100.00;101154.47;5072969;28;20433;-63
2023/05/03 06:03:11;;;;;;;8.07;4.45;;;;;;;8.00;100.00;101157.41;5072883;28;20036;-62
2023/05/03 06:05:36;;;;;;;6.68;3.80;;;;;;;7.99;100.00;101149.59;5072580;28;20405;-64
2023/05/03 06:08:02;;;;;;;6.13;3.60;;;;;;;8.06;100.00;101161.34;5072432;28;20605;-65
2023/05/03 06:10:28;;;;;;;9.85;4.07;;;;;;;8.10;100.00;101160.13;5073962;28;20048;-61
2023/05/03 06:12:55;;;;;;;9.68;4.88;;;;;;;8.19;100.00;101166.41;5072557;28;20064;-63
2023/05/03 06:15:23;;;;;;;7.07;4.00;;;;;;;8.37;100.00;101160.34;5072481;28;20090;-63
2023/05/03 06:17:48;;;;;;;9.32;3.97;;;;;;;8.52;100.00;101158.13;5072016;28;20036;-63
2023/05/03 06:20:14;;;;;;;7.88;4.45;;;;;;;8.50;100.00;101160.09;5073409;28;20121;-64
2023/05/03 06:22:40;;;;;;;5.80;3.38;;;;;;;8.53;100.00;101156.31;5072411;28;20036;-63
2023/05/03 06:25:08;;;;;;;8.90;4.13;;;;;;;8.48;100.00;101154.09;5072372;28;20029;-63
2023/05/03 06:27:35;;;;;;;6.57;4.00;;;;;;;8.56;100.00;101153.41;5071957;28;20086;-65
2023/05/03 06:30:00;;;;;;;7.03;3.80;;;;;;;8.67;100.00;101161.22;5055588;28;20382;-60
2023/05/03 06:32:27;;;;;;;8.43;4.28;;;;;;;8.76;100.00;101163.06;5072034;28;20020;-60
2023/05/03 06:34:53;;;;;;;7.47;4.35;;;;;;;8.80;100.00;101152.97;5073252;28;20037;-60
2023/05/03 06:37:18;;;;;;;6.25;3.38;;;;;;;8.87;99.80;101144.31;5071779;28;20036;-64
2023/05/03 06:39:44;;;;;;;6.75;3.92;;;;;;;8.96;100.00;101138.16;5073344;28;20051;-61
2023/05/03 06:42:10;;;;;;;6.35;3.60;;;;;;;9.04;99.48;101134.78;5072150;28;20143;-62
2023/05/03 06:44:38;;;;;;;8.38;4.55;;;;;;;9.08;98.53;101130.88;5071097;28;20497;-64
2023/05/03 06:47:04;;;;;;;6.20;3.15;;;;;;;9.21;97.99;101141.22;5054970;28;20047;-62
2023/05/03 06:49:29;;;;;;;7.90;4.03;;;;;;;9.21;97.35;101134.06;5071606;28;20044;-63
2023/05/03 06:51:55;;;;;;;7.32;4.15;;;;;;;9.33;97.56;101128.59;5054972;28;20433;-62
2023/05/03 06:54:20;;;;;;;6.38;3.92;;;;;;;9.42;97.10;101133.88;5071938;28;20397;-62
2023/05/03 06:56:45;;;;;;;8.48;4.03;;;;;;;9.50;96.02;101130.50;5072897;28;20570;-62
2023/05/03 06:59:11;;;;;;;6.80;3.35;;;;;;;9.64;95.20;101131.84;5071615;28;20048;-63
2023/05/03 07:01:36;;;;;;;6.30;4.10;;;;;;;9.61;95.28;101121.50;5073064;28;20037;-62
2023/05/03 07:04:02;;;;;;;7.05;3.92;;;;;;;9.78;95.90;101123.41;5072670;28;20051;-64
2023/05/03 07:06:27;;;;;;;7.47;4.43;;;;;;;9.88;94.12;101124.19;5072890;28;20521;-63
2023/05/03 07:08:53;;;;;;;6.38;3.90;;;;;;;9.99;94.02;101124.00;5072442;28;20435;-62
2023/05/03 07:11:22;;;;;;;9.52;3.90;;;;;;;10.09;94.14;101123.94;5072606;28;20123;-63
2023/05/03 07:13:50;;;;;;;6.63;3.90;;;;;;;10.27;92.43;101129.31;5072646;28;20063;-63
2023/05/03 07:16:15;;;;;;;7.78;3.92;;;;;;;10.36;91.80;101139.06;5072435;28;20105;-63
2023/05/03 07:18:41;;;;;;;7.65;4.10;;;;;;;10.46;92.54;101139.03;5072163;28;20090;-61
2023/05/03 07:21:06;;;;;;;9.43;3.70;;;;;;;10.51;91.69;101126.09;5072382;28;20043;-62
2023/05/03 07:23:31;;;;;;;6.53;3.97;;;;;;;10.62;90.33;101133.00;5072568;28;20085;-61
2023/05/03 07:25:58;;;;;;;8.80;3.60;;;;;;;10.69;89.92;101121.56;5072346;28;20036;-62
2023/05/03 07:28:23;;;;;;;5.68;3.80;;;;;;;10.66;89.34;101113.91;5072530;28;20385;-63
2023/05/03 07:30:49;;;;;;;9.60;3.88;;;;;;;10.68;90.18;101114.56;5072390;28;20029;-63
2023/05/03 07:33:15;;;;;;;5.35;3.85;;;;;;;10.81;90.24;101111.53;5072375;28;20044;-64
2023/05/03 07:35:41;;;;;;;9.70;4.05;;;;;;;10.84;89.68;101112.06;5072188;28;20039;-63
2023/05/03 07:38:06;;;;;;;7.13;3.67;;;;;;;10.99;88.71;101109.69;5071879;28;20072;-64
2023/05/03 07:40:32;;;;;;;5.68;3.95;;;;;;;11.08;91.08;101108.78;5072116;28;20112;-64
2023/05/03 07:43:00;;;;;;;6.13;3.47;;;;;;;11.19;88.43;101093.50;5072147;28;20098;-63
2023/05/03 07:45:26;;;;;;;7.47;3.30;;;;;;;11.39;87.33;101103.78;5068757;28;20048;-64
2023/05/03 07:47:51;;;;;;;7.90;4.30;;;;;;;11.39;88.25;101109.13;5068601;28;20207;-64
2023/05/03 07:50:17;;;;;;;7.18;4.70;;;;;;;11.44;87.06;101102.47;5071993;28;20051;-64
2023/05/03 07:52:42;;;;;;;7.32;3.97;;;;;;;11.49;87.93;101105.53;5071947;28;20109;-64
2023/05/03 07:55:08;;;;;;;6.63;4.20;;;;;;;11.48;87.12;101098.53;5071579;28;20110;-63
2023/05/03 07:57:35;;;;;;;6.35;4.07;;;;;;;11.61;86.53;101094.41;5071634;28;20033;-62
2023/05/03 08:00:01;;;;;;;6.45;3.22;;;;;;;11.71;86.81;101088.94;5071792;28;20488;-63
2023/05/03 08:02:26;;;;;;;6.15;3.53;;;;;;;11.93;84.93;101088.41;5071752;28;20082;-64
2023/05/03 08:04:53;;;;;;;5.00;3.53;;;;;;;12.04;85.34;101102.44;5071961;28;20040;-64
2023/05/03 08:07:19;;;;;;;8.30;4.30;;;;;;;12.10;83.63;101096.47;5071507;28;20045;-64
2023/05/03 08:09:44;;;;;;;6.15;3.78;;;;;;;12.26;83.83;101098.31;5071793;28;20051;-64
2023/05/03 08:12:10;;;;;;;5.28;3.20;;;;;;;12.33;83.40;101102.88;5071779;28;20064;-64
2023/05/03 08:14:36;;;;;;;4.57;3.58;;;;;;;12.43;84.12;101100.03;5071857;28;20040;-64
2023/05/03 08:17:03;;;;;;;7.03;3.33;;;;;;;12.57;81.76;101096.72;5071370;28;20381;-64
2023/05/03 08:19:29;;;;;;;6.25;4.07;;;;;;;12.70;80.82;101107.75;5071808;28;20128;-63
2023/05/03 08:21:54;;;;;;;6.47;4.13;;;;;;;12.63;80.98;101106.75;5071552;28;20079;-64
2023/05/03 08:24:20;;;;;;;8.98;3.75;;;;;;;12.59;82.30;101102.75;5071867;28;20036;-64
2023/05/03 08:26:47;;;;;;;7.88;3.97;;;;;;;12.67;82.23;101107.25;5071783;28;20491;-64
2023/05/03 08:29:13;;;;;;;7.22;3.38;;;;;;;12.94;81.23;101112.28;5071653;28;20074;-63
2023/05/03 08:31:39;;;;;;;6.53;3.60;;;;;;;13.01;80.05;101102.56;5071716;28;20055;-64
2023/05/03 08:34:05;;;;;;;8.45;3.65;;;;;;;13.21;79.91;101116.47;5072025;28;20489;-64
2023/05/03 08:36:31;;;;;;;5.40;3.40;;;;;;;13.30;78.78;101111.91;5071714;28;20505;-63
2023/05/03 08:38:57;;;;;;;6.32;3.63;;;;;;;13.53;77.21;101114.72;5071390;28;20305;-65
2023/05/03 08:41:30;;;;;;;5.60;3.40;;;;;;;13.48;76.99;101103.69;5071622;28;20182;-64
2023/05/03 08:43:57;;;;;;;5.25;3.60;;;;;;;13.62;76.72;101108.34;5071675;28;20516;-63
2023/05/03 08:46:26;;;;;;;6.22;3.20;;;;;;;13.71;75.74;101104.63;5071512;28;20078;-64
2023/05/03 08:48:54;;;;;;;6.45;3.58;;;;;;;13.84;75.94;101112.97;5071310;28;20036;-62
2023/05/03 08:51:21;;;;;;;5.22;3.70;;;;;;;13.79;75.59;101093.88;5071530;28;20033;-64
2023/05/03 08:53:47;;;;;;;5.25;3.42;;;;;;;13.93;75.88;101099.53;5071486;28;20090;-64
2023/05/03 08:56:23;;;;;;;6.03;3.92;;;;;;;13.95;75.82;101094.81;5071438;28;20079;-63
2023/05/03 08:58:48;;;;;;;7.00;3.70;;;;;;;14.09;74.11;101088.75;5071313;28;20029;-63
2023/05/03 09:01:14;;;;;;;8.43;4.03;;;;;;;14.35;73.81;101094.63;5071407;28;20547;-64
2023/05/03 09:03:47;;;;;;;6.00;3.70;;;;;;;14.70;71.52;101089.69;5071503;28;20036;-60
2023/05/03 09:06:25;;;;;;;4.30;3.35;;;;;;;14.69;70.88;101093.41;5071385;28;20493;-62
2023/05/03 09:08:51;;;;;;;5.40;3.35;;;;;;;14.80;70.54;101089.44;5073985;28;20489;-64
2023/05/03 09:11:36;;;;;;;8.02;3.80;;;;;;;14.81;69.54;101094.66;5075634;28;20036;-63
2023/05/03 09:14:09;;;;;;;4.95;3.35;;;;;;;14.73;70.20;101085.81;5075050;28;20462;-64
2023/05/03 09:16:35;;;;;;;8.27;3.28;;;;;;;14.80;71.05;101097.47;5074770;28;20040;-64
2023/05/03 09:19:10;;;;;;;8.02;3.55;;;;;;;15.06;69.69;101097.09;5074776;28;20129;-63
2023/05/03 09:21:36;;;;;;;5.80;3.80;;;;;;;15.13;69.40;101087.31;5074989;28;20426;-63
2023/05/03 09:27:42;;;;;;;4.72;3.17;;;;;;;15.83;65.70;101094.94;5074924;28;20048;-63
2023/05/03 09:30:18;;;;;;;5.22;3.53;;;;;;;15.92;65.15;101093.84;5074665;28;20036;-63
2023/05/03 09:32:48;;;;;;;6.13;3.20;;;;;;;15.75;65.80;101097.75;5074722;28;20048;-63
2023/05/03 09:35:14;;;;;;;3.90;3.20;;;;;;;16.14;64.66;101089.34;5074466;28;20074;-64
2023/05/03 09:37:39;;;;;;;6.90;4.00;;;;;;;16.29;63.51;101097.34;5073195;28;20037;-66
2023/05/03 09:40:10;;;;;;;4.88;3.45;;;;;;;16.59;62.53;101090.03;5074583;28;20512;-67
2023/05/03 09:42:35;;;;;;;5.72;4.00;;;;;;;16.44;62.11;101086.56;5074515;28;20036;-66
2023/05/03 09:45:01;;;;;;;6.53;3.33;;;;;;;16.73;62.76;101088.31;5074405;28;20033;-66
2023/05/03 09:47:27;;;;;;;4.28;3.03;;;;;;;17.00;60.43;101082.13;5074132;28;20036;-67
2023/05/03 09:49:53;;;;;;;5.93;3.53;;;;;;;17.56;57.85;101082.09;5074455;28;20512;-65
2023/05/03 09:52:21;;;;;;;7.38;3.50;;;;;;;17.89;57.52;101084.16;5074031;28;20488;-66
2023/05/03 09:54:47;;;;;;;5.32;3.58;;;;;;;18.15;56.82;101076.16;5074375;28;20024;-65
2023/05/03 09:57:13;;;;;;;6.38;3.05;;;;;;;18.29;55.35;101087.00;5074006;28;20382;-65
2023/05/03 09:59:39;;;;;;;5.22;3.33;;;;;;;18.49;54.76;101089.72;5074297;28;20055;-66
2023/05/03 10:02:06;;;;;;;4.07;3.28;;;;;;;18.87;53.94;101081.91;5074264;28;20036;-65
2023/05/03 10:04:42;;;;;;;4.85;3.38;;;;;;;19.16;53.25;101084.16;5074279;28;20037;-65
2023/05/03 10:07:16;;;;;;;4.45;3.75;;;;;;;18.89;53.74;101072.56;5073748;28;20042;-64
2023/05/03 10:09:44;;;;;;;5.13;2.97;;;;;;;19.68;51.67;101077.03;5074102;28;20074;-65
2023/05/03 10:12:11;;;;;;;5.88;3.25;;;;;;;19.53;50.93;101069.16;5074030;28;20052;-64
2023/05/03 10:14:43;;;;;;;;;;;;;;;19.56;50.53;101072.47;5074738;28;20048;-65
2023/05/03 10:17:26;;;;;;;3.50;2.55;;;;;;;19.86;50.51;101083.63;5073620;28;19912;-64
2023/05/03 10:20:36;;;;;;;4.50;3.35;;;;;;;19.75;50.75;101075.13;5074001;28;20025;-65
2023/05/03 10:23:04;;;;;;;5.93;2.88;;;;;;;19.99;50.48;101057.34;5072672;28;20113;-64
2023/05/03 10:25:31;;;;;;;4.85;3.65;;;;;;;20.57;48.62;101064.53;5073768;28;20029;-64
2023/05/03 10:28:03;;;;;;;5.15;3.30;;;;;;;20.14;48.30;101054.38;5073487;28;20037;-65
2023/05/03 10:30:31;;;;;;;4.25;3.30;;;;;;;20.36;47.43;101048.63;5073651;28;20093;-63
2023/05/03 10:32:58;;;;;;;6.30;3.58;;;;;;;20.22;48.45;101039.78;5073634;28;20028;-65
2023/05/03 10:35:27;;;;;;;5.63;3.72;;;;;;;20.30;48.37;101036.81;5073575;28;20040;-64
2023/05/03 10:37:55;;;;;;;4.97;3.38;;;;;;;20.77;47.15;101032.72;5073262;28;20037;-66
2023/05/03 10:40:21;;;;;;;6.22;3.53;;;;;;;21.61;45.78;101033.16;5073502;28;20115;-65
2023/05/03 10:42:55;;;;;;;4.85;3.50;;;;;;;21.15;46.11;101018.22;5073499;28;20511;-64
2023/05/03 10:45:21;;;;;;;4.53;3.35;;;;;;;21.30;46.46;101026.00;5073257;28;20097;-65
2023/05/03 10:48:09;;;;;;;4.43;2.92;;;;;;;21.98;44.07;101027.69;5073309;28;20028;-64
2023/05/03 10:50:34;;;;;;;6.45;3.33;;;;;;;22.03;44.46;101025.09;5073242;28;20043;-65
2023/05/03 10:52:59;;;;;;;4.93;3.13;;;;;;;21.32;45.09;101013.03;5073215;28;20041;-64
2023/05/03 10:55:25;;;;;;;4.05;3.05;;;;;;;21.85;44.96;101013.25;5071879;28;20489;-63
2023/05/03 10:57:54;;;;;;;5.15;3.20;;;;;;;22.31;45.50;101016.38;5072864;28;20031;-65
2023/05/03 11:00:26;;;;;;;4.00;2.75;;;;;;;22.62;42.40;101018.78;5073118;28;20043;-64
2023/05/03 11:02:57;;;;;;;4.20;2.60;;;;;;;22.70;43.40;101012.22;5073224;28;20028;-64
2023/05/03 11:05:27;;;;;;;3.60;2.88;;;;;;;22.47;43.00;101007.56;5073053;28;20117;-65
2023/05/03 11:08:10;;;;;;;3.42;2.80;;;;;;;22.18;43.12;101001.13;5072749;28;20047;-65
2023/05/03 11:10:35;;;;;;;3.80;2.90;;;;;;;22.43;42.72;101007.22;5072939;28;20044;-64
2023/05/03 11:13:01;;;;;;;3.80;2.92;;;;;;;21.69;43.23;101000.31;5072812;28;20086;-65
2023/05/03 11:15:26;;;;;;;5.47;3.13;;;;;;;22.05;42.48;101002.13;5073289;28;20454;-65
2023/05/03 11:17:52;;;;;;;5.22;3.25;;;;;;;21.94;43.23;101006.44;5072492;28;20043;-65
2023/05/03 11:20:18;;;;;;;4.45;3.05;;;;;;;22.68;42.25;101011.59;5072629;28;20042;-64
2023/05/03 11:22:43;;;;;;;3.80;3.10;;;;;;;20.89;44.43;101003.06;5072544;28;20033;-64
2023/05/03 11:25:09;;;;;;;3.38;3.00;;;;;;;20.65;45.99;101003.88;5071080;28;20032;-64
2023/05/03 11:27:35;;;;;;;4.93;2.83;;;;;;;21.16;46.12;100995.50;5072188;28;20047;-64
2023/05/03 11:30:00;;;;;;;3.90;2.55;;;;;;;22.05;43.92;100998.59;5072027;28;20037;-64
2023/05/03 11:32:26;;;;;;;3.88;2.97;;;;;;;21.82;44.96;101002.03;5072359;28;20481;-65
2023/05/03 11:34:52;;;;;;;4.65;2.85;;;;;;;21.89;43.95;100991.91;5072406;28;20039;-64
2023/05/03 11:37:17;;;;;;;3.35;3.00;;;;;;;22.46;44.01;100986.91;5071935;28;20041;-65
2023/05/03 11:39:43;;;;;;;4.63;2.50;;;;;;;23.00;41.25;100993.91;5072428;28;20032;-64
2023/05/03 11:42:08;;;;;;;4.07;3.03;;;;;;;22.95;40.87;100985.69;5072346;28;20024;-63
2023/05/03 11:44:36;;;;;;;5.88;3.20;;;;;;;23.08;40.91;100986.47;5072719;28;20066;-65
2023/05/03 11:47:02;;;;;;;3.78;3.03;;;;;;;23.32;40.29;100984.56;5072094;28;20040;-64
2023/05/03 11:49:28;;;;;;;3.17;2.42;;;;;;;23.54;40.89;100977.41;5072159;28;20036;-65
2023/05/03 11:51:54;;;;;;;3.95;2.42;;;;;;;23.88;38.79;100974.84;5072126;28;20040;-65
2023/05/03 11:54:21;;;;;;;3.97;2.85;;;;;;;24.45;38.25;100983.78;5072360;28;20123;-64
2023/05/03 11:56:46;;;;;;;3.27;2.30;;;;;;;24.82;37.77;100962.25;5072203;28;20510;-65
2023/05/03 11:59:11;;;;;;;4.45;2.83;;;;;;;24.93;36.98;100970.59;5072039;28;20143;-64
2023/05/03 12:01:37;;;;;;;4.20;2.95;;;;;;;24.67;36.97;100972.94;5072236;28;20165;-64
2023/05/03 12:04:04;;;;;;;4.28;2.42;;;;;;;24.45;37.63;100964.72;5072046;28;20036;-65
2023/05/03 12:06:32;;;;;;;2.95;2.40;;;;;;;24.77;37.28;100961.38;5072185;28;20051;-63
2023/05/03 12:08:59;;;;;;;5.47;2.80;;;;;;;24.44;37.62;100954.03;5071824;28;20512;-65
2023/05/03 12:11:25;;;;;;;4.00;2.95;;;;;;;23.93;38.02;100970.31;5071919;28;20033;-64
2023/05/03 12:14:01;;;;;;;4.63;2.30;;;;;;;24.73;37.71;100960.22;5072393;28;20401;-65
2023/05/03 12:16:27;;;;;;;4.53;2.50;;;;;;;25.11;36.70;100949.38;5072494;28;20386;-65
2023/05/03 12:19:01;;;;;;;3.63;2.13;;;;;;;25.27;36.55;100963.19;5071886;28;20028;-64
2023/05/03 12:21:43;;;;;;;2.88;2.13;;;;;;;25.61;35.88;100961.94;5072471;28;20290;-65
2023/05/03 12:24:08;;;;;;;4.57;2.00;;;;;;;25.21;37.05;100954.09;5072203;28;20037;-64
2023/05/03 12:26:34;;;;;;;3.05;2.53;;;;;;;24.80;35.94;100944.53;5072091;28;20036;-65
2023/05/03 12:29:00;;;;;;;2.40;1.80;;;;;;;25.34;35.99;100942.00;5072274;28;20036;-63
2023/05/03 12:31:25;;;;;;;2.60;2.20;;;;;;;25.22;36.79;100949.47;5073047;28;20043;-64
2023/05/03 12:33:51;;;;;;;3.35;2.22;;;;;;;25.98;34.48;100947.63;5073451;28;20413;-65
2023/05/03 12:36:18;;;;;;;3.27;2.47;;;;;;;26.06;34.54;100936.25;5073438;28;20044;-65
2023/05/03 12:38:43;;;;;;;2.90;2.27;;;;;;;26.06;34.89;100932.69;5072966;28;20364;-64
2023/05/03 12:41:10;;;;;;;2.35;2.00;;;;;;;25.59;35.17;100931.38;5072131;28;20032;-65
2023/05/03 12:43:35;;;;;;;3.45;2.10;;;;;;;26.71;33.54;100931.56;5074747;28;20044;-65
2023/05/03 12:46:01;;;;;;;3.70;2.58;;;;;;;26.79;32.96;100926.41;5076060;28;20547;-65
2023/05/03 12:48:27;;;;;;;2.53;2.25;;;;;;;26.44;34.18;100926.22;5075800;28;20036;-64
2023/05/03 12:50:53;;;;;;;3.23;1.77;;;;;;;26.88;33.01;100923.22;5075691;28;20127;-65
2023/05/03 12:53:20;;;;;;;3.40;2.08;;;;;;;26.48;33.67;100914.50;5075737;28;20810;-64
2023/05/03 12:55:46;;;;;;;2.50;1.83;;;;;;;26.09;33.59;100915.81;5075070;28;20448;-65
2023/05/03 12:58:11;;;;;;;2.45;1.70;;;;;;;27.08;33.05;100915.13;5075095;28;20090;-65
2023/05/03 13:00:37;;;;;;;2.85;2.10;;;;;;;26.35;32.93;100914.94;5075849;28;20044;-65
2023/05/03 13:03:03;;;;;;;4.20;2.13;;;;;;;25.46;34.46;100899.06;5075728;28;20090;-64
2023/05/03 13:05:28;;;;;;;3.00;2.22;;;;;;;24.84;34.88;100902.06;5074462;28;20068;-64
2023/05/03 13:07:54;;;;;;;2.97;2.33;;;;;;;24.33;36.07;100894.00;5075629;28;20076;-64
2023/05/03 13:10:19;;;;;;;4.05;2.35;;;;;;;24.37;36.43;100894.31;5075213;28;20036;-64
2023/05/03 13:12:45;;;;;;;2.72;2.17;;;;;;;24.36;35.82;100888.06;5076220;28;20096;-63
2023/05/03 13:15:11;;;;;;;2.15;1.90;;;;;;;25.04;35.51;100893.34;5075632;28;20138;-65
2023/05/03 13:17:36;;;;;;;3.75;2.00;;;;;;;23.73;36.66;100893.75;5074849;28;20044;-65
2023/05/03 13:20:05;;;;;;;3.60;2.10;;;;;;;24.89;35.84;100875.72;5075235;28;20063;-64
2023/05/03 13:22:31;;;;;;;3.28;2.30;;;;;;;25.16;34.57;100888.63;5073684;28;20496;-63
2023/05/03 13:24:56;;;;;;;7.35;2.67;;;;;;;24.63;34.67;100877.28;5075239;28;20028;-65
2023/05/03 13:27:22;;;;;;;3.55;2.00;;;;;;;25.13;34.63;100875.50;5073479;28;20047;-65
2023/05/03 13:29:47;;;;;;;2.15;1.73;;;;;;;24.43;35.07;100873.44;5074026;28;20045;-65
2023/05/03 13:32:13;;;;;;;2.70;2.05;;;;;;;23.89;35.83;100871.22;5074857;28;20036;-65
2023/05/03 13:34:38;;;;;;;2.45;1.70;;;;;;;22.48;38.91;100871.59;5073556;28;20041;-65
2023/05/03 13:37:04;;;;;;;4.03;1.77;;;;;;;22.63;39.36;100863.00;5074611;28;20036;-64
2023/05/03 13:39:30;;;;;;;2.45;2.00;;;;;;;21.91;39.98;100862.34;5074581;28;20048;-64
2023/05/03 13:41:55;;;;;;;2.50;1.80;;;;;;;22.28;39.55;100848.59;5074381;28;20045;-65
2023/05/03 13:44:24;;;;;;;2.22;2.00;;;;;;;22.69;37.93;100867.47;5074719;28;20076;-65
2023/05/03 13:46:49;;;;;;;2.65;1.85;;;;;;;22.06;39.93;100862.72;5074380;28;20033;-64
2023/05/03 13:49:15;;;;;;;2.72;1.90;;;;;;;21.93;40.51;100844.78;5074446;28;20097;-65
2023/05/03 13:51:40;;;;;;;2.47;1.90;;;;;;;22.10;40.11;100852.25;5073232;28;20039;-65
2023/05/03 13:54:06;;;;;;;3.08;2.08;;;;;;;21.32;40.96;100842.34;5074131;28;20040;-63
2023/05/03 13:56:33;;;;;;;2.05;1.75;;;;;;;21.62;40.88;100851.31;5075110;28;20040;-64
2023/05/03 13:58:58;;;;;;;3.08;2.20;;;;;;;21.41;40.96;100851.81;5074516;28;20115;-64
2023/05/03 14:01:25;;;;;;;2.65;2.20;;;;;;;21.73;40.19;100843.44;5074949;28;20186;-64
2023/05/03 14:03:51;;;;;;;2.50;1.90;;;;;;;21.50;40.64;100839.59;5074841;28;20071;-65
2023/05/03 14:06:17;;;;;;;2.35;1.77;;;;;;;21.84;39.65;100840.75;5074467;28;20485;-65
2023/05/03 14:08:42;;;;;;;3.58;2.50;;;;;;;21.18;40.16;100830.84;5074037;28;20037;-65
2023/05/03 14:11:15;;;;;;;2.85;2.22;;;;;;;21.50;40.34;100826.03;5074116;28;20085;-65
2023/05/03 14:13:41;;;;;;;2.90;2.25;;;;;;;21.17;41.21;100828.38;5074399;28;20417;-65
2023/05/03 14:16:14;;;;;;;3.15;1.85;;;;;;;21.25;41.36;100818.03;5073975;28;20024;-65
2023/05/03 14:18:39;;;;;;;3.55;1.80;;;;;;;20.82;42.60;100810.91;5073832;28;20045;-65
2023/05/03 14:21:05;;;;;;;1.95;1.67;;;;;;;20.93;42.43;100813.88;5073846;28;20102;-65
2023/05/03 14:23:30;;;;;;;2.17;1.83;;;;;;;20.58;42.47;100812.63;5073689;28;20055;-65
2023/05/03 14:25:56;;;;;;;3.30;2.05;;;;;;;20.88;42.20;100801.03;5073786;28;20038;-65
2023/05/03 14:28:21;;;;;;;1.83;1.45;;;;;;;20.83;42.45;100800.88;5073880;28;20040;-65
2023/05/03 14:30:47;;;;;;;2.10;1.90;;;;;;;20.56;43.15;100794.97;5074299;28;20043;-65
2023/05/03 14:33:12;;;;;;;2.50;1.88;;;;;;;20.88;41.27;100798.34;5073950;28;20044;-65
2023/05/03 14:35:39;;;;;;;3.75;1.92;;;;;;;20.52;42.19;100791.03;5072529;28;20044;-66
2023/05/03 14:38:05;;;;;;;2.07;1.77;;;;;;;20.57;42.72;100794.75;5073625;28;20048;-66
2023/05/03 14:40:30;;;;;;;2.72;1.83;;;;;;;20.69;41.63;100797.53;5073382;28;20032;-65
2023/05/03 14:42:56;;;;;;;1.80;1.70;;;;;;;20.79;41.65;100808.63;5073417;28;20465;-65
2023/05/03 14:45:21;;;;;;;2.55;1.85;;;;;;;20.77;41.60;100805.31;5073870;28;20378;-66
2023/05/03 14:47:47;;;;;;;3.90;1.85;;;;;;;20.30;43.20;100799.59;5073189;28;20047;-64
2023/05/03 14:50:12;;;;;;;2.05;1.67;;;;;;;20.37;42.93;100791.41;5073414;28;20573;-66
2023/05/03 14:52:38;;;;;;;5.38;2.22;;;;;;;20.49;42.59;100799.63;5073217;28;20048;-65
2023/05/03 14:55:06;;;;;;;2.75;1.63;;;;;;;20.21;44.15;100795.53;5073623;28;20025;-65
2023/05/03 14:57:32;;;;;;;5.03;1.75;;;;;;;20.30;42.10;100805.00;5073295;28;20409;-65
2023/05/03 15:00:00;;;;;;;2.90;1.40;;;;;;;20.27;45.47;100800.00;5073164;28;20099;-65
2023/05/03 15:02:26;;;;;;;3.17;2.08;;;;;;;20.20;41.83;100799.25;5073576;28;20037;-65
2023/05/03 15:04:52;;;;;;;2.17;1.70;;;;;;;20.25;41.91;100799.41;5073411;28;20090;-65
2023/05/03 15:07:19;;;;;;;2.08;1.42;;;;;;;20.05;41.82;100806.91;5072643;28;20037;-65
2023/05/03 15:09:44;;;;;;;2.10;1.70;;;;;;;20.06;41.48;100811.25;5072950;28;20486;-64
2023/05/03 15:12:10;;;;;;;3.38;1.75;;;;;;;19.63;43.14;100809.34;5072871;28;20078;-63
2023/05/03 15:14:35;;;;;;;2.65;1.80;;;;;;;19.38;43.29;100800.31;5072805;28;20040;-65
2023/05/03 15:17:00;;;;;;;3.38;2.03;;;;;;;19.60;43.44;100804.34;5072780;28;20048;-65
2023/05/03 15:19:27;;;;;;;2.00;1.80;;;;;;;19.71;42.31;100805.53;5072874;28;20398;-64
2023/05/03 15:21:52;;;;;;;2.15;1.73;;;;;;;19.69;42.54;100803.06;5071406;28;20110;-65
2023/05/03 15:24:18;;;;;;;2.08;1.50;;;;;;;19.86;42.52;100794.38;5072575;28;20478;-65
2023/05/03 15:26:43;;;;;;;3.83;2.03;;;;;;;19.87;41.97;100787.91;5072415;28;20222;-64
2023/05/03 15:29:09;;;;;;;2.80;1.75;;;;;;;19.82;42.24;100791.28;5072555;28;20434;-65
2023/05/03 15:31:36;;;;;;;1.85;1.60;;;;;;;19.82;42.02;100793.97;5072600;28;20493;-65
2023/05/03 15:34:03;;;;;;;1.90;1.52;;;;;;;19.66;42.57;100797.25;5072464;28;20036;-65
2023/05/03 15:36:30;;;;;;;2.28;1.55;;;;;;;19.64;42.49;100789.38;5072335;28;20406;-66
2023/05/03 15:38:55;;;;;;;2.30;1.80;;;;;;;19.59;42.45;100789.19;5072433;28;20036;-66
2023/05/03 15:41:22;;;;;;;2.72;1.60;;;;;;;19.42;42.46;100766.41;5071284;28;20051;-65
2023/05/03 15:43:47;;;;;;;2.05;1.60;;;;;;;19.33;43.24;100775.84;5072625;28;20036;-66
2023/05/03 15:46:12;;;;;;;1.48;1.23;;;;;;;19.44;43.07;100769.75;5072290;28;20037;-65
2023/05/03 15:48:38;;;;;;;2.10;1.63;;;;;;;19.47;43.16;100775.53;5071965;28;20084;-65
2023/05/03 15:51:04;;;;;;;2.65;1.90;;;;;;;19.60;43.09;100769.22;5072204;28;20090;-66